sensor_id;sensor_type;location;lat;lon;timestamp;pressure;altitude;pressure_sealevel;temperature;humidity
9822;BME280;4950;46.042;14.472;2024-03-07T00:01:04;97957.72;;;8.93;97.28
9822;BME280;4950;46.042;14.472;2024-03-07T00:03:31;97949.63;;;8.96;97.75
9822;BME280;4950;46.042;14.472;2024-03-07T00:05:58;97956.94;;;9.01;97.90
9822;BME280;4950;46.042;14.472;2024-03-07T00:08:26;97958.38;;;9.03;97.69
9822;BME280;4950;46.042;14.472;2024-03-07T00:10:52;97953.69;;;9.07;97.96
9822;BME280;4950;46.042;14.472;2024-03-07T00:13:19;97954.31;;;9.09;97.37
9822;BME280;4950;46.042;14.472;2024-03-07T00:15:46;97950.44;;;9.13;97.26
9822;BME280;4950;46.042;14.472;2024-03-07T00:18:14;97946.06;;;9.14;97.51
9822;BME280;4950;46.042;14.472;2024-03-07T00:20:41;97955.78;;;9.20;97.32
9822;BME280;4950;46.042;14.472;2024-03-07T00:23:08;97947.34;;;9.18;97.64
9822;BME280;4950;46.042;14.472;2024-03-07T00:25:35;97953.66;;;9.23;97.45
9822;BME280;4950;46.042;14.472;2024-03-07T00:28:03;97952.22;;;9.21;97.12
9822;BME280;4950;46.042;14.472;2024-03-07T00:30:30;97948.81;;;9.28;97.76
9822;BME280;4950;46.042;14.472;2024-03-07T00:32:57;97952.34;;;9.27;97.19
9822;BME280;4950;46.042;14.472;2024-03-07T00:35:25;97956.72;;;9.27;97.18
9822;BME280;4950;46.042;14.472;2024-03-07T00:37:52;97950.94;;;9.17;96.71
9822;BME280;4950;46.042;14.472;2024-03-07T00:40:19;97954.47;;;9.16;96.96
9822;BME280;4950;46.042;14.472;2024-03-07T00:42:46;97947.03;;;9.13;98.15
9822;BME280;4950;46.042;14.472;2024-03-07T00:45:13;97943.31;;;9.15;97.73
9822;BME280;4950;46.042;14.472;2024-03-07T00:47:40;97941.22;;;9.19;97.05
9822;BME280;4950;46.042;14.472;2024-03-07T00:50:07;97942.00;;;9.19;96.46
9822;BME280;4950;46.042;14.472;2024-03-07T00:52:37;97933.44;;;9.19;96.39
9822;BME280;4950;46.042;14.472;2024-03-07T00:55:05;97936.34;;;9.16;96.36
9822;BME280;4950;46.042;14.472;2024-03-07T00:57:33;97929.56;;;9.15;96.79
9822;BME280;4950;46.042;14.472;2024-03-07T01:00:00;97942.50;;;9.15;96.40
9822;BME280;4950;46.042;14.472;2024-03-07T01:02:27;97939.28;;;9.13;96.48
9822;BME280;4950;46.042;14.472;2024-03-07T01:04:55;97940.56;;;9.17;96.24
9822;BME280;4950;46.042;14.472;2024-03-07T01:07:22;97941.22;;;9.19;96.20
9822;BME280;4950;46.042;14.472;2024-03-07T01:09:50;97936.34;;;9.07;96.08
9822;BME280;4950;46.042;14.472;2024-03-07T01:12:17;97936.53;;;8.98;96.89
9822;BME280;4950;46.042;14.472;2024-03-07T01:14:45;97931.34;;;8.98;97.09
9822;BME280;4950;46.042;14.472;2024-03-07T01:17:12;97939.25;;;8.96;96.10
9822;BME280;4950;46.042;14.472;2024-03-07T01:19:38;97935.38;;;8.92;96.83
9822;BME280;4950;46.042;14.472;2024-03-07T01:22:05;97929.91;;;8.95;96.58
9822;BME280;4950;46.042;14.472;2024-03-07T01:24:33;97932.16;;;8.98;96.67
9822;BME280;4950;46.042;14.472;2024-03-07T01:27:01;97937.16;;;9.08;95.59
9822;BME280;4950;46.042;14.472;2024-03-07T01:29:28;97934.91;;;9.05;96.13
9822;BME280;4950;46.042;14.472;2024-03-07T01:31:55;97929.56;;;9.06;95.78
9822;BME280;4950;46.042;14.472;2024-03-07T01:34:22;97929.22;;;9.09;95.54
9822;BME280;4950;46.042;14.472;2024-03-07T01:36:48;97929.06;;;9.11;95.83
9822;BME280;4950;46.042;14.472;2024-03-07T01:39:15;97922.59;;;9.07;95.91
9822;BME280;4950;46.042;14.472;2024-03-07T01:41:42;97925.03;;;9.08;95.88
9822;BME280;4950;46.042;14.472;2024-03-07T01:44:10;97932.47;;;9.03;95.24
9822;BME280;4950;46.042;14.472;2024-03-07T01:46:37;97930.22;;;9.00;96.06
9822;BME280;4950;46.042;14.472;2024-03-07T01:49:04;97928.94;;;9.04;95.78
9822;BME280;4950;46.042;14.472;2024-03-07T01:51:33;97917.75;;;9.04;95.56
9822;BME280;4950;46.042;14.472;2024-03-07T01:54:00;97923.56;;;9.06;95.22
9822;BME280;4950;46.042;14.472;2024-03-07T01:56:27;97917.59;;;8.97;95.15
9822;BME280;4950;46.042;14.472;2024-03-07T01:58:55;97924.22;;;9.00;95.36
9822;BME280;4950;46.042;14.472;2024-03-07T02:01:24;97922.94;;;8.96;95.24
9822;BME280;4950;46.042;14.472;2024-03-07T02:03:51;97922.44;;;8.92;95.28
9822;BME280;4950;46.042;14.472;2024-03-07T02:06:18;97914.38;;;8.87;94.75
9822;BME280;4950;46.042;14.472;2024-03-07T02:08:45;97920.19;;;8.73;95.69
9822;BME280;4950;46.042;14.472;2024-03-07T02:11:13;97919.19;;;8.57;96.78
9822;BME280;4950;46.042;14.472;2024-03-07T02:13:39;97916.13;;;8.70;96.59
9822;BME280;4950;46.042;14.472;2024-03-07T02:16:06;97917.91;;;8.78;95.96
9822;BME280;4950;46.042;14.472;2024-03-07T02:18:35;97914.38;;;8.87;94.87
9822;BME280;4950;46.042;14.472;2024-03-07T02:21:07;97919.38;;;8.88;94.98
9822;BME280;4950;46.042;14.472;2024-03-07T02:23:34;97921.00;;;8.89;94.94
9822;BME280;4950;46.042;14.472;2024-03-07T02:26:01;97915.47;;;8.84;94.92
9822;BME280;4950;46.042;14.472;2024-03-07T02:28:28;97911.44;;;8.82;94.60
9822;BME280;4950;46.042;14.472;2024-03-07T02:30:55;97906.44;;;8.80;94.58
9822;BME280;4950;46.042;14.472;2024-03-07T02:33:22;97911.13;;;8.77;94.96
9822;BME280;4950;46.042;14.472;2024-03-07T02:35:49;97914.34;;;8.79;94.50
9822;BME280;4950;46.042;14.472;2024-03-07T02:38:17;97914.69;;;8.76;94.96
9822;BME280;4950;46.042;14.472;2024-03-07T02:40:44;97911.75;;;8.70;95.17
9822;BME280;4950;46.042;14.472;2024-03-07T02:43:11;97914.19;;;8.64;95.99
9822;BME280;4950;46.042;14.472;2024-03-07T02:45:38;97911.13;;;8.68;96.09
9822;BME280;4950;46.042;14.472;2024-03-07T02:48:05;97909.66;;;8.66;96.81
9822;BME280;4950;46.042;14.472;2024-03-07T02:50:34;97905.16;;;8.68;96.56
9822;BME280;4950;46.042;14.472;2024-03-07T02:53:03;97902.06;;;8.73;96.65
9822;BME280;4950;46.042;14.472;2024-03-07T02:55:31;97897.72;;;8.73;95.64
9822;BME280;4950;46.042;14.472;2024-03-07T02:57:57;97900.13;;;8.66;96.92
9822;BME280;4950;46.042;14.472;2024-03-07T03:00:24;97905.31;;;8.58;96.90
9822;BME280;4950;46.042;14.472;2024-03-07T03:02:55;97904.97;;;8.45;97.63
9822;BME280;4950;46.042;14.472;2024-03-07T03:05:23;97911.91;;;8.53;97.83
9822;BME280;4950;46.042;14.472;2024-03-07T03:07:49;97906.25;;;8.57;97.66
9822;BME280;4950;46.042;14.472;2024-03-07T03:10:20;97908.53;;;8.52;98.13
9822;BME280;4950;46.042;14.472;2024-03-07T03:12:52;97904.78;;;8.38;98.39
9822;BME280;4950;46.042;14.472;2024-03-07T03:15:20;97914.41;;;8.28;99.41
9822;BME280;4950;46.042;14.472;2024-03-07T03:17:46;97922.09;;;8.46;98.68
9822;BME280;4950;46.042;14.472;2024-03-07T03:20:13;97915.16;;;8.46;98.20
9822;BME280;4950;46.042;14.472;2024-03-07T03:22:50;97923.56;;;8.48;98.54
9822;BME280;4950;46.042;14.472;2024-03-07T03:25:17;97915.31;;;8.45;98.39
9822;BME280;4950;46.042;14.472;2024-03-07T03:27:44;97917.19;;;8.26;98.58
9822;BME280;4950;46.042;14.472;2024-03-07T03:30:12;97915.25;;;8.37;99.13
9822;BME280;4950;46.042;14.472;2024-03-07T03:32:39;97912.69;;;8.37;98.43
9822;BME280;4950;46.042;14.472;2024-03-07T03:35:07;97912.81;;;8.27;98.00
9822;BME280;4950;46.042;14.472;2024-03-07T03:37:39;97911.84;;;8.28;97.92
9822;BME280;4950;46.042;14.472;2024-03-07T03:40:09;97912.03;;;8.26;98.56
9822;BME280;4950;46.042;14.472;2024-03-07T03:42:37;97919.44;;;8.29;98.25
9822;BME280;4950;46.042;14.472;2024-03-07T03:45:04;97921.38;;;8.36;97.29
9822;BME280;4950;46.042;14.472;2024-03-07T03:47:34;97923.66;;;8.39;97.26
9822;BME280;4950;46.042;14.472;2024-03-07T03:50:03;97918.00;;;8.35;97.78
9822;BME280;4950;46.042;14.472;2024-03-07T03:52:30;97927.19;;;8.29;97.68
9822;BME280;4950;46.042;14.472;2024-03-07T03:54:57;97929.63;;;8.31;97.89
9822;BME280;4950;46.042;14.472;2024-03-07T03:57:24;97929.81;;;8.38;97.30
9822;BME280;4950;46.042;14.472;2024-03-07T03:59:51;97939.34;;;8.37;96.92
9822;BME280;4950;46.042;14.472;2024-03-07T04:02:17;97938.53;;;8.28;97.70
9822;BME280;4950;46.042;14.472;2024-03-07T04:04:45;97936.72;;;8.21;97.10
9822;BME280;4950;46.042;14.472;2024-03-07T04:07:12;97938.16;;;8.15;96.46
9822;BME280;4950;46.042;14.472;2024-03-07T04:09:39;97939.31;;;8.21;96.95
9822;BME280;4950;46.042;14.472;2024-03-07T04:12:06;97940.91;;;8.22;97.26
9822;BME280;4950;46.042;14.472;2024-03-07T04:14:36;97936.91;;;8.27;96.91
9822;BME280;4950;46.042;14.472;2024-03-07T04:17:03;97937.31;;;8.06;96.75
9822;BME280;4950;46.042;14.472;2024-03-07T04:19:32;97941.69;;;8.14;97.89
9822;BME280;4950;46.042;14.472;2024-03-07T04:22:00;97933.66;;;8.17;97.24
9822;BME280;4950;46.042;14.472;2024-03-07T04:24:29;97933.81;;;8.24;97.47
9822;BME280;4950;46.042;14.472;2024-03-07T04:26:57;97938.50;;;8.20;97.66
9822;BME280;4950;46.042;14.472;2024-03-07T04:29:24;97936.72;;;8.21;97.92
9822;BME280;4950;46.042;14.472;2024-03-07T04:31:51;97933.50;;;8.27;97.49
9822;BME280;4950;46.042;14.472;2024-03-07T04:34:17;97945.16;;;8.31;96.79
9822;BME280;4950;46.042;14.472;2024-03-07T04:36:44;97943.38;;;8.31;96.33
9822;BME280;4950;46.042;14.472;2024-03-07T04:39:12;97948.88;;;8.37;96.72
9822;BME280;4950;46.042;14.472;2024-03-07T04:41:50;97944.03;;;8.34;96.49
9822;BME280;4950;46.042;14.472;2024-03-07T04:44:17;97955.34;;;8.33;96.95
9822;BME280;4950;46.042;14.472;2024-03-07T04:46:44;97957.44;;;8.37;96.09
9822;BME280;4950;46.042;14.472;2024-03-07T04:49:11;97959.63;;;8.42;95.53
9822;BME280;4950;46.042;14.472;2024-03-07T04:51:39;97956.00;;;8.35;95.51
9822;BME280;4950;46.042;14.472;2024-03-07T04:54:06;97965.03;;;8.22;96.04
9822;BME280;4950;46.042;14.472;2024-03-07T04:56:34;97968.09;;;8.26;95.89
9822;BME280;4950;46.042;14.472;2024-03-07T04:59:00;97963.84;;;8.08;94.78
9822;BME280;4950;46.042;14.472;2024-03-07T05:01:27;97968.47;;;7.97;95.59
9822;BME280;4950;46.042;14.472;2024-03-07T05:03:56;97966.72;;;7.97;95.88
9822;BME280;4950;46.042;14.472;2024-03-07T05:06:23;97970.09;;;7.98;96.00
9822;BME280;4950;46.042;14.472;2024-03-07T05:08:49;97977.84;;;7.98;95.65
9822;BME280;4950;46.042;14.472;2024-03-07T05:11:16;97974.34;;;7.72;94.49
9822;BME280;4950;46.042;14.472;2024-03-07T05:13:44;97981.28;;;7.46;96.71
9822;BME280;4950;46.042;14.472;2024-03-07T05:16:11;97980.06;;;7.58;97.02
9822;BME280;4950;46.042;14.472;2024-03-07T05:18:37;97988.88;;;7.47;97.82
9822;BME280;4950;46.042;14.472;2024-03-07T05:21:04;97984.72;;;7.55;98.50
9822;BME280;4950;46.042;14.472;2024-03-07T05:23:55;97989.75;;;7.56;98.89
9822;BME280;4950;46.042;14.472;2024-03-07T05:26:23;97993.28;;;7.55;98.33
9822;BME280;4950;46.042;14.472;2024-03-07T05:28:51;97989.03;;;7.72;100.00
9822;BME280;4950;46.042;14.472;2024-03-07T05:31:19;97991.66;;;7.80;99.75
9822;BME280;4950;46.042;14.472;2024-03-07T05:33:46;97988.56;;;7.77;99.51
9822;BME280;4950;46.042;14.472;2024-03-07T05:36:13;97988.56;;;7.77;99.29
9822;BME280;4950;46.042;14.472;2024-03-07T05:38:43;97992.16;;;7.84;98.86
9822;BME280;4950;46.042;14.472;2024-03-07T05:41:10;97988.97;;;7.90;97.16
9822;BME280;4950;46.042;14.472;2024-03-07T05:43:37;97990.59;;;7.91;96.35
9822;BME280;4950;46.042;14.472;2024-03-07T05:46:06;97987.38;;;7.97;95.55
9822;BME280;4950;46.042;14.472;2024-03-07T05:48:35;97996.56;;;7.91;94.61
9822;BME280;4950;46.042;14.472;2024-03-07T05:51:02;98004.97;;;7.94;93.57
9822;BME280;4950;46.042;14.472;2024-03-07T05:53:29;98008.97;;;7.88;93.41
9822;BME280;4950;46.042;14.472;2024-03-07T05:55:55;98012.50;;;7.87;93.77
9822;BME280;4950;46.042;14.472;2024-03-07T05:58:22;98009.13;;;7.86;92.84
9822;BME280;4950;46.042;14.472;2024-03-07T06:00:49;98007.34;;;7.87;93.05
9822;BME280;4950;46.042;14.472;2024-03-07T06:03:17;98015.56;;;7.82;92.61
9822;BME280;4950;46.042;14.472;2024-03-07T06:05:45;98022.53;;;7.82;92.74
9822;BME280;4950;46.042;14.472;2024-03-07T06:08:14;98020.75;;;7.82;92.70
9822;BME280;4950;46.042;14.472;2024-03-07T06:10:42;98025.09;;;7.82;92.85
9822;BME280;4950;46.042;14.472;2024-03-07T06:13:09;98024.94;;;7.57;91.86
9822;BME280;4950;46.042;14.472;2024-03-07T06:15:37;98028.44;;;7.30;92.44
9822;BME280;4950;46.042;14.472;2024-03-07T06:18:04;98030.91;;;7.14;94.67
9822;BME280;4950;46.042;14.472;2024-03-07T06:20:32;98032.72;;;6.85;95.93
9822;BME280;4950;46.042;14.472;2024-03-07T06:23:00;98033.84;;;7.01;97.51
9822;BME280;4950;46.042;14.472;2024-03-07T06:25:29;98037.81;;;6.77;96.32
9822;BME280;4950;46.042;14.472;2024-03-07T06:28:02;98043.38;;;6.82;96.55
9822;BME280;4950;46.042;14.472;2024-03-07T06:30:35;98038.81;;;6.94;96.20
9822;BME280;4950;46.042;14.472;2024-03-07T06:33:03;98040.66;;;6.84;95.53
9822;BME280;4950;46.042;14.472;2024-03-07T06:35:29;98047.34;;;6.95;95.21
9822;BME280;4950;46.042;14.472;2024-03-07T06:37:58;98050.78;;;6.85;94.95
9822;BME280;4950;46.042;14.472;2024-03-07T06:40:24;98049.66;;;6.98;95.70
9822;BME280;4950;46.042;14.472;2024-03-07T06:42:51;98050.72;;;6.95;96.18
9822;BME280;4950;46.042;14.472;2024-03-07T06:45:18;98049.50;;;6.99;96.08
9822;BME280;4950;46.042;14.472;2024-03-07T06:47:45;98056.19;;;7.10;95.65
9822;BME280;4950;46.042;14.472;2024-03-07T06:50:12;98054.50;;;7.01;96.24
9822;BME280;4950;46.042;14.472;2024-03-07T06:52:45;98062.22;;;6.83;95.65
9822;BME280;4950;46.042;14.472;2024-03-07T06:55:14;98065.91;;;6.80;95.49
9822;BME280;4950;46.042;14.472;2024-03-07T06:57:42;98060.63;;;6.82;95.96
9822;BME280;4950;46.042;14.472;2024-03-07T07:00:10;98059.44;;;6.94;95.71
9822;BME280;4950;46.042;14.472;2024-03-07T07:02:37;98064.53;;;6.86;95.47
9822;BME280;4950;46.042;14.472;2024-03-07T07:05:06;98059.31;;;6.96;95.27
9822;BME280;4950;46.042;14.472;2024-03-07T07:07:37;98055.91;;;7.13;94.30
9822;BME280;4950;46.042;14.472;2024-03-07T07:10:05;98060.63;;;7.18;93.39
9822;BME280;4950;46.042;14.472;2024-03-07T07:12:35;98066.84;;;7.25;92.59
9822;BME280;4950;46.042;14.472;2024-03-07T07:15:03;98070.09;;;7.27;92.32
9822;BME280;4950;46.042;14.472;2024-03-07T07:17:30;98062.69;;;7.32;92.20
9822;BME280;4950;46.042;14.472;2024-03-07T07:19:57;98075.66;;;7.22;92.26
9822;BME280;4950;46.042;14.472;2024-03-07T07:22:25;98072.06;;;7.15;93.17
9822;BME280;4950;46.042;14.472;2024-03-07T07:24:52;98064.09;;;7.08;93.65
9822;BME280;4950;46.042;14.472;2024-03-07T07:27:18;98069.31;;;7.17;93.96
9822;BME280;4950;46.042;14.472;2024-03-07T07:29:46;98070.88;;;7.27;92.95
9822;BME280;4950;46.042;14.472;2024-03-07T07:32:13;98075.00;;;7.20;92.36
9822;BME280;4950;46.042;14.472;2024-03-07T07:34:40;98078.25;;;7.22;93.34
9822;BME280;4950;46.042;14.472;2024-03-07T07:37:08;98079.16;;;7.13;92.30
9822;BME280;4950;46.042;14.472;2024-03-07T07:39:35;98086.91;;;7.13;92.81
9822;BME280;4950;46.042;14.472;2024-03-07T07:42:02;98084.38;;;7.03;92.28
9822;BME280;4950;46.042;14.472;2024-03-07T07:44:29;98085.25;;;6.94;92.43
9822;BME280;4950;46.042;14.472;2024-03-07T07:46:57;98088.22;;;6.99;93.27
9822;BME280;4950;46.042;14.472;2024-03-07T07:49:24;98086.31;;;7.01;92.43
9822;BME280;4950;46.042;14.472;2024-03-07T07:51:51;98086.31;;;7.01;93.57
9822;BME280;4950;46.042;14.472;2024-03-07T07:54:19;98085.84;;;7.06;92.79
9822;BME280;4950;46.042;14.472;2024-03-07T07:56:46;98089.75;;;7.10;90.94
9822;BME280;4950;46.042;14.472;2024-03-07T07:59:13;98089.03;;;7.18;89.31
9822;BME280;4950;46.042;14.472;2024-03-07T08:01:40;98087.25;;;7.18;87.92
9822;BME280;4950;46.042;14.472;2024-03-07T08:04:08;98098.91;;;7.22;82.07
9822;BME280;4950;46.042;14.472;2024-03-07T08:06:36;98099.44;;;7.26;81.16
9822;BME280;4950;46.042;14.472;2024-03-07T08:09:04;98090.66;;;7.37;81.87
9822;BME280;4950;46.042;14.472;2024-03-07T08:11:35;98091.75;;;7.52;79.97
9822;BME280;4950;46.042;14.472;2024-03-07T08:14:02;98091.06;;;7.68;79.27
9822;BME280;4950;46.042;14.472;2024-03-07T08:16:28;98094.41;;;7.86;79.77
9822;BME280;4950;46.042;14.472;2024-03-07T08:18:55;98090.47;;;8.00;77.99
9822;BME280;4950;46.042;14.472;2024-03-07T08:21:23;98090.16;;;8.03;75.13
9822;BME280;4950;46.042;14.472;2024-03-07T08:23:50;98086.69;;;8.13;75.42
9822;BME280;4950;46.042;14.472;2024-03-07T08:26:17;98090.72;;;8.15;74.28
9822;BME280;4950;46.042;14.472;2024-03-07T08:28:43;98084.63;;;8.24;73.58
9822;BME280;4950;46.042;14.472;2024-03-07T08:31:10;98090.13;;;8.29;74.80
9822;BME280;4950;46.042;14.472;2024-03-07T08:33:38;98088.84;;;8.34;73.07
9822;BME280;4950;46.042;14.472;2024-03-07T08:36:05;98087.34;;;8.49;73.43
9822;BME280;4950;46.042;14.472;2024-03-07T08:38:36;98086.59;;;8.30;71.96
9822;BME280;4950;46.042;14.472;2024-03-07T08:41:03;98087.03;;;8.44;73.79
9822;BME280;4950;46.042;14.472;2024-03-07T08:43:29;98089.94;;;8.49;73.28
9822;BME280;4950;46.042;14.472;2024-03-07T08:45:56;98088.75;;;8.78;73.09
9822;BME280;4950;46.042;14.472;2024-03-07T08:48:23;98083.31;;;9.05;72.02
9822;BME280;4950;46.042;14.472;2024-03-07T08:50:50;98087.38;;;9.24;71.68
9822;BME280;4950;46.042;14.472;2024-03-07T08:53:16;98086.09;;;9.20;70.79
9822;BME280;4950;46.042;14.472;2024-03-07T08:55:45;98083.19;;;9.40;71.01
9822;BME280;4950;46.042;14.472;2024-03-07T08:58:12;98090.13;;;9.39;69.37
9822;BME280;4950;46.042;14.472;2024-03-07T09:00:39;98083.84;;;9.50;70.57
9822;BME280;4950;46.042;14.472;2024-03-07T09:03:06;98083.34;;;9.71;69.31
9822;BME280;4950;46.042;14.472;2024-03-07T09:05:35;98083.31;;;9.96;68.80
9822;BME280;4950;46.042;14.472;2024-03-07T09:08:02;98085.25;;;10.02;65.28
9822;BME280;4950;46.042;14.472;2024-03-07T09:10:28;98087.53;;;9.97;66.01
9822;BME280;4950;46.042;14.472;2024-03-07T09:12:57;98085.41;;;10.08;66.40
9822;BME280;4950;46.042;14.472;2024-03-07T09:15:24;98081.16;;;10.32;65.92
9822;BME280;4950;46.042;14.472;2024-03-07T09:17:51;98081.94;;;10.24;62.81
9822;BME280;4950;46.042;14.472;2024-03-07T09:20:18;98085.53;;;10.15;64.06
9822;BME280;4950;46.042;14.472;2024-03-07T09:22:45;98088.59;;;10.19;64.96
9822;BME280;4950;46.042;14.472;2024-03-07T09:25:12;98074.84;;;10.18;62.66
9822;BME280;4950;46.042;14.472;2024-03-07T09:27:39;98079.22;;;10.18;63.73
9822;BME280;4950;46.042;14.472;2024-03-07T09:30:08;98074.88;;;10.10;62.93
9822;BME280;4950;46.042;14.472;2024-03-07T09:32:38;98073.69;;;10.37;64.14
9822;BME280;4950;46.042;14.472;2024-03-07T09:35:06;98075.75;;;10.42;62.84
9822;BME280;4950;46.042;14.472;2024-03-07T09:37:38;98076.31;;;10.69;60.62
9822;BME280;4950;46.042;14.472;2024-03-07T09:40:06;98069.16;;;10.71;59.33
9822;BME280;4950;46.042;14.472;2024-03-07T09:42:34;98070.38;;;10.83;60.47
9822;BME280;4950;46.042;14.472;2024-03-07T09:45:04;98075.25;;;11.09;60.11
9822;BME280;4950;46.042;14.472;2024-03-07T09:47:33;98068.69;;;11.21;59.98
9822;BME280;4950;46.042;14.472;2024-03-07T09:50:01;98064.13;;;11.46;59.31
9822;BME280;4950;46.042;14.472;2024-03-07T09:52:29;98063.81;;;11.41;57.05
9822;BME280;4950;46.042;14.472;2024-03-07T09:54:56;98059.16;;;11.37;57.17
9822;BME280;4950;46.042;14.472;2024-03-07T09:57:24;98064.50;;;11.58;57.10
9822;BME280;4950;46.042;14.472;2024-03-07T09:59:53;98057.63;;;11.80;57.62
9822;BME280;4950;46.042;14.472;2024-03-07T10:02:21;98057.91;;;11.85;55.38
9822;BME280;4950;46.042;14.472;2024-03-07T10:04:53;98058.66;;;11.94;54.73
9822;BME280;4950;46.042;14.472;2024-03-07T10:07:21;98050.00;;;11.64;55.87
9822;BME280;4950;46.042;14.472;2024-03-07T10:09:48;98062.19;;;11.78;55.97
9822;BME280;4950;46.042;14.472;2024-03-07T10:12:17;98054.41;;;11.78;56.07
9822;BME280;4950;46.042;14.472;2024-03-07T10:14:48;98053.00;;;11.91;55.98
9822;BME280;4950;46.042;14.472;2024-03-07T10:17:16;98056.44;;;12.06;56.31
9822;BME280;4950;46.042;14.472;2024-03-07T10:19:46;98059.75;;;12.44;54.23
9822;BME280;4950;46.042;14.472;2024-03-07T10:22:14;98056.06;;;12.39;53.42
9822;BME280;4950;46.042;14.472;2024-03-07T10:24:49;98047.84;;;12.72;53.21
9822;BME280;4950;46.042;14.472;2024-03-07T10:27:17;98048.09;;;12.98;53.07
9822;BME280;4950;46.042;14.472;2024-03-07T10:29:46;98045.41;;;13.28;52.26
9822;BME280;4950;46.042;14.472;2024-03-07T10:32:13;98049.69;;;13.14;50.69
9822;BME280;4950;46.042;14.472;2024-03-07T10:34:40;98044.03;;;12.89;51.05
9822;BME280;4950;46.042;14.472;2024-03-07T10:37:12;98040.78;;;12.87;50.82
9822;BME280;4950;46.042;14.472;2024-03-07T10:39:43;98048.03;;;12.92;52.17
9822;BME280;4950;46.042;14.472;2024-03-07T10:42:13;98046.22;;;12.71;51.33
9822;BME280;4950;46.042;14.472;2024-03-07T10:44:43;98037.63;;;12.55;51.38
9822;BME280;4950;46.042;14.472;2024-03-07T10:47:13;98043.66;;;12.41;52.04
9822;BME280;4950;46.042;14.472;2024-03-07T10:49:53;98046.63;;;12.53;52.34
9822;BME280;4950;46.042;14.472;2024-03-07T10:52:29;98040.09;;;12.78;52.36
9822;BME280;4950;46.042;14.472;2024-03-07T10:55:09;98024.25;;;13.16;52.11
9822;BME280;4950;46.042;14.472;2024-03-07T10:57:43;98032.25;;;13.65;50.41
9822;BME280;4950;46.042;14.472;2024-03-07T11:00:12;98034.72;;;14.01;49.63
9822;BME280;4950;46.042;14.472;2024-03-07T11:02:56;98026.84;;;13.94;48.21
9822;BME280;4950;46.042;14.472;2024-03-07T11:05:25;98023.50;;;14.14;49.45
9822;BME280;4950;46.042;14.472;2024-03-07T11:07:56;98021.91;;;14.06;47.65
9822;BME280;4950;46.042;14.472;2024-03-07T11:10:25;98018.78;;;14.24;47.59
9822;BME280;4950;46.042;14.472;2024-03-07T11:12:53;98010.69;;;14.60;48.06
9822;BME280;4950;46.042;14.472;2024-03-07T11:15:21;98009.16;;;14.86;47.06
9822;BME280;4950;46.042;14.472;2024-03-07T11:17:51;97999.13;;;15.23;46.11
9822;BME280;4950;46.042;14.472;2024-03-07T11:20:20;97997.31;;;15.30;45.83
9822;BME280;4950;46.042;14.472;2024-03-07T11:22:48;97986.47;;;15.33;45.34
9822;BME280;4950;46.042;14.472;2024-03-07T11:25:18;97992.28;;;15.49;45.34
9822;BME280;4950;46.042;14.472;2024-03-07T11:27:52;97990.69;;;15.74;44.62
9822;BME280;4950;46.042;14.472;2024-03-07T11:30:21;97987.44;;;15.79;44.48
9822;BME280;4950;46.042;14.472;2024-03-07T11:32:49;97979.78;;;15.84;43.22
9822;BME280;4950;46.042;14.472;2024-03-07T11:35:19;97978.34;;;15.82;43.41
9822;BME280;4950;46.042;14.472;2024-03-07T11:37:56;97977.38;;;15.63;43.19
9822;BME280;4950;46.042;14.472;2024-03-07T11:40:44;97980.00;;;15.56;43.50
9822;BME280;4950;46.042;14.472;2024-03-07T11:43:13;97972.72;;;15.71;43.28
9822;BME280;4950;46.042;14.472;2024-03-07T11:45:40;97974.72;;;15.96;43.42
9822;BME280;4950;46.042;14.472;2024-03-07T11:48:11;97967.47;;;15.91;42.44
9822;BME280;4950;46.042;14.472;2024-03-07T11:50:41;97962.44;;;15.70;43.02
9822;BME280;4950;46.042;14.472;2024-03-07T11:53:09;97957.22;;;15.70;42.81
9822;BME280;4950;46.042;14.472;2024-03-07T11:55:37;97961.69;;;15.76;43.26
9822;BME280;4950;46.042;14.472;2024-03-07T11:58:13;97957.22;;;15.90;43.56
9822;BME280;4950;46.042;14.472;2024-03-07T12:00:42;97953.72;;;16.09;43.06
9822;BME280;4950;46.042;14.472;2024-03-07T12:03:11;97945.88;;;16.09;43.08
9822;BME280;4950;46.042;14.472;2024-03-07T12:05:40;97947.38;;;16.30;42.58
9822;BME280;4950;46.042;14.472;2024-03-07T12:08:09;97941.00;;;16.51;42.98
9822;BME280;4950;46.042;14.472;2024-03-07T12:10:36;97935.28;;;16.68;42.64
9822;BME280;4950;46.042;14.472;2024-03-07T12:13:06;97941.06;;;16.76;41.41
9822;BME280;4950;46.042;14.472;2024-03-07T12:15:34;97934.31;;;16.94;41.00
9822;BME280;4950;46.042;14.472;2024-03-07T12:18:02;97943.94;;;17.25;40.41
9822;BME280;4950;46.042;14.472;2024-03-07T12:20:35;97934.28;;;17.44;39.71
9822;BME280;4950;46.042;14.472;2024-03-07T12:23:03;97932.84;;;17.48;38.11
9822;BME280;4950;46.042;14.472;2024-03-07T12:25:31;97928.84;;;16.95;38.91
9822;BME280;4950;46.042;14.472;2024-03-07T12:28:03;97925.69;;;16.87;39.92
9822;BME280;4950;46.042;14.472;2024-03-07T12:30:33;97918.41;;;16.89;40.45
9822;BME280;4950;46.042;14.472;2024-03-07T12:33:02;97913.44;;;17.06;40.41
9822;BME280;4950;46.042;14.472;2024-03-07T12:35:32;97917.13;;;17.23;38.42
9822;BME280;4950;46.042;14.472;2024-03-07T12:37:59;97918.69;;;16.74;39.21
9822;BME280;4950;46.042;14.472;2024-03-07T12:40:28;97924.59;;;16.31;40.13
9822;BME280;4950;46.042;14.472;2024-03-07T12:42:59;97920.56;;;15.83;41.22
9822;BME280;4950;46.042;14.472;2024-03-07T12:45:28;97914.41;;;15.44;42.59
9822;BME280;4950;46.042;14.472;2024-03-07T12:47:59;97916.84;;;15.26;41.83
9822;BME280;4950;46.042;14.472;2024-03-07T12:50:31;97918.25;;;15.15;42.49
9822;BME280;4950;46.042;14.472;2024-03-07T12:53:00;97918.47;;;14.73;43.10
9822;BME280;4950;46.042;14.472;2024-03-07T12:55:31;97921.00;;;14.40;44.59
9822;BME280;4950;46.042;14.472;2024-03-07T12:57:58;97927.75;;;14.14;44.91
9822;BME280;4950;46.042;14.472;2024-03-07T13:00:24;97922.09;;;14.11;45.27
9822;BME280;4950;46.042;14.472;2024-03-07T13:02:51;97924.00;;;13.82;45.34
9822;BME280;4950;46.042;14.472;2024-03-07T13:05:20;97922.94;;;13.70;46.14
9822;BME280;4950;46.042;14.472;2024-03-07T13:07:49;97922.06;;;13.06;46.59
9822;BME280;4950;46.042;14.472;2024-03-07T13:10:16;97929.25;;;12.97;46.65
9822;BME280;4950;46.042;14.472;2024-03-07T13:12:44;97923.00;;;12.70;47.48
9822;BME280;4950;46.042;14.472;2024-03-07T13:15:11;97922.78;;;12.29;48.27
9822;BME280;4950;46.042;14.472;2024-03-07T13:17:38;97926.75;;;12.24;49.16
9822;BME280;4950;46.042;14.472;2024-03-07T13:20:08;97930.69;;;12.20;49.30
9822;BME280;4950;46.042;14.472;2024-03-07T13:22:39;97923.44;;;12.16;50.17